Terminal Aerodrome Forecast
Issued by NWS

Home | Current Version | Previous Version | Text Only | Print | Product List | Glossary On
Versions: 1 2 3 4 5 6 7 8 9 10 11 12 13 14 15 16 17 18 19 20 21 22 23 24 25 26 27 28 29 30 31 32 33 34 35 36 37 38 39 40 41 42
000
FTUS44 KHGX 251127
TAFSGR
TAF
KSGR 251127Z 2512/2612 VRB05KT P6SM VCTS SCT020 BKN035CB OVC250
      TEMPO 2512/2514 VRB20KT 2SM TSRA BKN018CB
     FM251400 12007KT P6SM VCTS FEW015 SCT025CB BKN120
      TEMPO 2514/2517 VRB15G25KT 2SM TSRA BKN025CB
     FM251800 14009KT P6SM VCSH SCT040 SCT080 BKN250
     FM252100 15010KT P6SM VCTS SCT035CB SCT080 BKN150
     FM260300 14007KT P6SM BKN025=

USA.gov is the U.S. government's official web portal to all federal, state and local government web resources and services.